Time;durP1;ratioP1;P1;durP2;ratioP2;P2;SDS_P1;SDS_P2;PMS_P1;PMS_P2;Temp;Humidity;BMP_temperature;BMP_pressure;BME280_temperature;BME280_humidity;BME280_pressure;Samples;Min_cycle;Max_cycle;Signal;HPM_P1;HPM_P2
2022/06/20 00:01:14;;;;;;;1999.90;999.90;;;;;;;26.17;47.32;94536.94;5028767;28;20096;-68
2022/06/20 00:03:43;;;;;;;1999.90;999.90;;;;;;;26.94;47.79;94680.41;5029269;28;20453;-67
2022/06/20 00:06:14;;;;;;;1999.90;999.90;;;;;;;26.32;47.50;94598.19;5028005;28;20029;-68
2022/06/20 00:08:40;;;;;;;1999.90;999.90;;;;;;;27.01;47.68;94698.59;5029128;28;20616;-67
2022/06/20 00:11:10;;;;;;;1999.90;999.90;;;;;;;26.28;47.85;94596.69;5028475;28;20030;-67
2022/06/20 00:13:40;;;;;;;1999.90;999.90;;;;;;;26.61;47.29;94641.28;5027881;28;20026;-68
2022/06/20 00:16:05;;;;;;;1999.90;999.90;;;;;;;26.21;47.39;94569.56;5027692;28;20535;-68
2022/06/20 00:18:32;;;;;;;1999.90;999.90;;;;;;;26.31;47.41;94576.75;5030340;28;20116;-67
2022/06/20 00:20:57;;;;;;;1999.90;999.90;;;;;;;26.46;47.61;94610.00;5032533;28;20557;-67
2022/06/20 00:23:23;;;;;;;1999.90;999.90;;;;;;;26.30;47.67;94577.97;5032691;28;20026;-68
2022/06/20 00:25:49;;;;;;;1999.90;999.90;;;;;;;26.68;47.59;94663.00;5032870;28;20029;-68
2022/06/20 00:28:16;;;;;;;1999.90;999.90;;;;;;;25.89;47.07;94522.63;5032856;28;20029;-67
2022/06/20 00:30:42;;;;;;;1999.90;999.90;;;;;;;26.04;47.33;94544.19;5032239;28;20080;-68
2022/06/20 00:33:08;;;;;;;1999.90;999.90;;;;;;;26.66;47.28;94647.00;5032758;28;20054;-68
2022/06/20 00:35:34;;;;;;;1999.90;999.90;;;;;;;26.06;47.36;94585.44;5032435;28;20026;-68
2022/06/20 00:38:02;;;;;;;1999.90;999.90;;;;;;;26.12;47.22;94572.84;5032703;28;20029;-68
2022/06/20 00:40:36;;;;;;;1999.90;999.90;;;;;;;25.73;47.62;94530.69;5031966;28;20025;-67
2022/06/20 00:43:05;;;;;;;1999.90;999.90;;;;;;;26.78;46.84;94672.16;5032597;28;20117;-68
2022/06/20 00:45:37;;;;;;;1999.90;999.90;;;;;;;26.14;47.19;94571.22;5032608;28;20021;-68
2022/06/20 00:48:09;;;;;;;1999.90;999.90;;;;;;;26.04;46.66;94568.72;5032427;28;20525;-69
2022/06/20 00:50:35;;;;;;;1999.90;999.90;;;;;;;26.13;46.94;94574.38;5032060;28;20040;-68
2022/06/20 00:53:11;;;;;;;1999.90;999.90;;;;;;;25.80;46.60;94524.41;5032578;28;20022;-68
2022/06/20 00:55:46;;;;;;;1999.90;999.90;;;;;;;25.93;46.52;94558.00;5032580;28;20025;-68
2022/06/20 00:58:34;;;;;;;1999.90;999.90;;;;;;;26.86;46.51;94677.03;5032750;28;20092;-69
2022/06/20 01:01:00;;;;;;;1999.90;999.90;;;;;;;26.13;46.14;94558.81;5032098;28;20064;-68
2022/06/20 01:03:33;;;;;;;1999.90;999.90;;;;;;;25.99;46.32;94547.38;5031987;28;20111;-68
2022/06/20 01:06:04;;;;;;;1999.90;999.90;;;;;;;26.85;46.59;94683.69;5032360;28;20033;-67
2022/06/20 01:08:40;;;;;;;1999.90;999.90;;;;;;;26.63;46.24;94656.06;5045778;23;20042;-73
2022/06/20 01:11:11;;;;;;;1999.90;999.90;;;;;;;26.74;46.25;94677.66;5011990;28;20478;-73
2022/06/20 01:13:37;;;;;;;1999.90;999.90;;;;;;;26.69;46.20;94675.44;5011013;28;20049;-73
2022/06/20 01:16:14;;;;;;;1999.90;999.90;;;;;;;26.77;46.34;94687.75;5012314;28;20378;-73
2022/06/20 01:18:46;;;;;;;1999.90;999.90;;;;;;;26.63;46.11;94672.41;5010973;28;20034;-72
2022/06/20 01:21:18;;;;;;;1999.90;999.90;;;;;;;26.67;46.46;94673.13;5012126;28;20022;-73
2022/06/20 01:24:24;;;;;;;1999.90;999.90;;;;;;;26.50;46.79;94692.53;5010990;28;20029;-73
2022/06/20 01:26:49;;;;;;;1999.90;999.90;;;;;;;26.05;47.79;94693.69;5012205;28;20026;-73
2022/06/20 01:29:15;;;;;;;1999.90;999.90;;;;;;;26.33;47.09;94675.28;5011737;28;20101;-72
2022/06/20 01:31:47;;;;;;;1999.90;999.90;;;;;;;26.59;46.78;94690.81;5011634;28;20025;-73
2022/06/20 01:34:16;;;;;;;1999.90;999.90;;;;;;;26.32;47.70;94679.97;5010705;28;20839;-72
2022/06/20 01:37:28;;;;;;;1999.90;999.90;;;;;;;26.18;48.37;94691.13;5011723;28;20108;-73
2022/06/20 01:39:37;;;;;;;1999.90;999.90;;;;;;;25.54;51.49;94692.06;5011325;28;20046;-73
2022/06/20 01:42:18;;;;;;;1999.90;999.90;;;;;;;25.99;50.28;94675.47;5010076;28;20022;-73
2022/06/20 01:44:50;;;;;;;1999.90;999.90;;;;;;;26.08;50.82;94675.72;5010364;28;20105;-72
2022/06/20 01:47:15;;;;;;;;;;;;;;;26.47;49.71;94696.13;5012104;28;20034;-73
2022/06/20 01:49:43;;;;;;;1999.90;999.90;;;;;;;26.08;50.59;94653.91;5010476;28;19913;-73
2022/06/20 01:52:16;;;;;;;1999.90;999.90;;;;;;;26.04;51.26;94675.00;5011228;28;20069;-72
2022/06/20 01:54:50;;;;;;;1999.90;999.90;;;;;;;26.14;51.02;94666.63;5011508;28;20074;-72
2022/06/20 01:57:17;;;;;;;1999.90;999.90;;;;;;;26.05;50.59;94660.97;5011460;28;20105;-73
2022/06/20 01:59:56;;;;;;;1999.90;999.90;;;;;;;26.00;51.26;94691.44;5010104;28;20033;-72
2022/06/20 02:02:21;;;;;;;1999.90;999.90;;;;;;;26.21;49.88;94687.56;5011322;28;20056;-72
2022/06/20 02:04:47;;;;;;;1999.90;999.90;;;;;;;26.33;49.36;94706.03;5011421;28;20026;-73
2022/06/20 02:07:13;;;;;;;1999.90;999.90;;;;;;;26.39;48.71;94692.72;5011351;28;20030;-73
2022/06/20 02:09:40;;;;;;;1999.90;999.90;;;;;;;26.38;48.50;94683.00;5010203;28;20021;-72
2022/06/20 02:12:08;;;;;;;1999.90;999.90;;;;;;;26.40;48.31;94681.38;5010643;28;20025;-72
2022/06/20 02:14:45;;;;;;;1999.90;999.90;;;;;;;26.32;47.78;94663.63;5011056;28;20552;-73
2022/06/20 02:17:16;;;;;;;1999.90;999.90;;;;;;;26.53;47.23;94695.22;5010104;28;20355;-73
2022/06/20 02:19:47;;;;;;;1999.90;999.90;;;;;;;26.46;47.07;94686.38;5009556;28;20026;-73
2022/06/20 02:22:15;;;;;;;1999.90;999.90;;;;;;;26.39;46.43;94682.56;5010730;28;20069;-72
2022/06/20 02:24:44;;;;;;;1999.90;999.90;;;;;;;26.33;46.08;94670.59;5010913;28;20502;-73
2022/06/20 02:27:22;;;;;;;1999.90;999.90;;;;;;;26.41;46.29;94673.97;5010949;28;20034;-73
2022/06/20 02:29:47;;;;;;;1999.90;999.90;;;;;;;26.33;46.04;94676.06;5010922;28;20475;-72
2022/06/20 02:32:20;;;;;;;1999.90;999.90;;;;;;;26.29;45.83;94674.56;5010578;28;20091;-73
2022/06/20 02:34:46;;;;;;;1999.90;999.90;;;;;;;26.32;45.65;94679.97;5010810;28;20022;-73
2022/06/20 02:37:19;;;;;;;1999.90;999.90;;;;;;;26.48;45.87;94700.38;5010052;28;20030;-73
2022/06/20 02:39:46;;;;;;;1999.90;999.90;;;;;;;26.37;45.79;94687.69;5008526;28;20545;-73
2022/06/20 02:42:18;;;;;;;1999.90;999.90;;;;;;;26.28;45.88;94700.31;5009712;28;20079;-73
2022/06/20 02:44:47;;;;;;;1999.90;999.90;;;;;;;26.32;45.85;94688.16;5009501;28;20033;-72
2022/06/20 02:47:14;;;;;;;1999.90;999.90;;;;;;;26.23;45.77;94671.56;5010851;28;20030;-73
2022/06/20 02:49:41;;;;;;;1999.90;999.90;;;;;;;26.32;45.66;94685.44;5011015;28;20025;-73
2022/06/20 02:52:12;;;;;;;1999.90;999.90;;;;;;;26.17;45.69;94663.09;5010089;28;20505;-73
2022/06/20 02:54:38;;;;;;;1999.90;999.90;;;;;;;26.23;45.51;94676.25;5010353;28;20024;-73
2022/06/20 02:57:12;;;;;;;1999.90;999.90;;;;;;;26.20;45.65;94680.56;5010508;28;20081;-73
2022/06/20 02:59:46;;;;;;;1999.90;999.90;;;;;;;26.21;45.78;94676.66;5010337;28;20021;-73
2022/06/20 03:02:13;;;;;;;1999.90;999.90;;;;;;;26.31;45.83;94702.97;5008677;28;20030;-73
2022/06/20 03:04:44;;;;;;;1999.90;999.90;;;;;;;26.24;45.80;94684.00;5008917;28;20414;-73
2022/06/20 03:07:14;;;;;;;1999.90;999.90;;;;;;;26.29;45.74;94690.94;5010234;28;20088;-72
2022/06/20 03:09:42;;;;;;;1999.90;999.90;;;;;;;26.27;45.74;94688.63;5009274;28;20088;-73
2022/06/20 03:12:09;;;;;;;1999.90;999.90;;;;;;;26.13;45.94;94669.78;5010568;28;20113;-73
2022/06/20 03:14:40;;;;;;;1999.90;999.90;;;;;;;26.25;46.09;94687.50;5010654;28;20030;-72
2022/06/20 03:17:07;;;;;;;1999.90;999.90;;;;;;;26.23;46.24;94687.91;5010709;28;20576;-72
2022/06/20 03:19:37;;;;;;;1999.90;999.90;;;;;;;26.14;46.21;94679.50;5010527;28;20022;-73
2022/06/20 03:22:07;;;;;;;1999.90;999.90;;;;;;;26.30;46.37;94692.47;5010243;28;20068;-73
2022/06/20 03:24:35;;;;;;;1999.90;999.90;;;;;;;26.35;46.22;94694.72;5010425;28;20053;-73
2022/06/20 03:27:06;;;;;;;1999.90;999.90;;;;;;;26.41;45.99;94698.50;5010545;28;20022;-73
2022/06/20 03:29:34;;;;;;;1999.90;999.90;;;;;;;26.27;45.83;94666.06;5009446;28;20390;-73
2022/06/20 03:32:00;;;;;;;1999.90;999.90;;;;;;;26.48;45.64;94686.75;5010168;28;20018;-73
2022/06/20 03:34:25;;;;;;;1999.90;999.90;;;;;;;26.66;45.44;94698.09;5010316;28;20540;-71
2022/06/20 03:36:51;;;;;;;1999.90;999.90;;;;;;;26.65;44.84;94669.28;5010573;28;20041;-72
2022/06/20 03:39:18;;;;;;;1999.90;999.90;;;;;;;26.88;44.93;94688.31;5010353;28;20026;-72
2022/06/20 03:41:44;;;;;;;1999.90;999.90;;;;;;;26.98;44.85;94696.72;5008641;28;20410;-73
2022/06/20 03:44:18;;;;;;;1999.90;999.90;;;;;;;26.94;44.57;94677.69;5010189;28;20018;-73
2022/06/20 03:46:53;;;;;;;1999.90;999.90;;;;;;;27.07;44.46;94691.44;5009727;28;20030;-73
2022/06/20 03:49:45;;;;;;;1999.90;999.90;;;;;;;27.14;44.04;94694.84;5009975;28;20026;-72
2022/06/20 03:52:15;;;;;;;1999.90;999.90;;;;;;;27.17;44.27;94693.22;5006017;28;20042;-73
2022/06/20 03:54:51;;;;;;;1999.90;999.90;;;;;;;27.14;43.79;94680.44;5013808;28;20028;-73
2022/06/20 03:57:28;;;;;;;1999.90;999.90;;;;;;;27.32;43.49;94693.69;5012419;28;20026;-73
2022/06/20 04:00:13;;;;;;;1999.90;999.90;;;;;;;27.44;42.90;94701.25;5012329;28;20037;-72
2022/06/20 04:02:52;;;;;;;1999.90;999.90;;;;;;;27.54;42.19;94702.19;5012177;28;20395;-72
2022/06/20 04:05:23;;;;;;;1999.90;999.90;;;;;;;27.56;42.41;94675.22;5012553;28;20091;-73
2022/06/20 04:07:55;;;;;;;1999.90;999.90;;;;;;;27.94;41.96;94691.94;5013525;28;20029;-73
2022/06/20 04:13:23;;;;;;;;;;;;;;;28.56;40.78;94714.66;5014362;28;20838;-73
2022/06/20 04:15:55;;;;;;;1999.90;999.90;;;;;;;28.87;39.63;94708.75;5013513;28;19949;-73
2022/06/20 04:18:28;;;;;;;1999.90;999.90;;;;;;;29.12;39.54;94713.56;5013360;28;20030;-73
2022/06/20 04:21:13;;;;;;;1999.90;999.90;;;;;;;29.35;38.59;94710.56;5013145;28;20085;-72
2022/06/20 04:24:06;;;;;;;1999.90;999.90;;;;;;;29.58;38.04;94711.47;5012021;28;20030;-72
2022/06/20 04:27:14;;;;;;;1999.90;999.90;;;;;;;29.71;37.93;94712.28;5011746;28;20021;-73
2022/06/20 04:30:06;;;;;;;1999.90;999.90;;;;;;;29.94;37.43;94725.66;4962336;28;20069;-73
2022/06/20 04:32:56;;;;;;;1999.90;999.90;;;;;;;30.09;37.24;94723.22;5005106;28;20030;-72
2022/06/20 04:35:32;;;;;;;1999.90;999.90;;;;;;;29.79;37.32;94732.78;5013301;28;20038;-73
2022/06/20 04:38:04;;;;;;;1999.90;999.90;;;;;;;29.02;38.72;94751.00;5013003;28;20390;-73
2022/06/20 04:40:38;;;;;;;1999.90;999.90;;;;;;;28.96;39.04;94739.81;5012466;28;20027;-74
2022/06/20 04:43:12;;;;;;;1999.90;999.90;;;;;;;29.40;38.55;94750.34;5011756;28;20471;-72
2022/06/20 04:45:43;;;;;;;1999.90;999.90;;;;;;;28.80;39.20;94753.50;5012734;28;20053;-73
2022/06/20 04:48:16;;;;;;;1999.90;999.90;;;;;;;28.91;39.86;94772.38;5011609;28;20083;-73
2022/06/20 04:50:44;;;;;;;1999.90;999.90;;;;;;;29.20;39.14;94734.09;5012306;28;20022;-73
2022/06/20 04:53:14;;;;;;;1999.90;999.90;;;;;;;28.81;40.18;94763.25;5012678;28;20032;-73
2022/06/20 04:55:48;;;;;;;1999.90;999.90;;;;;;;29.03;39.77;94763.50;5013268;28;20022;-74
2022/06/20 04:58:19;;;;;;;1999.90;999.90;;;;;;;28.09;42.07;94777.13;5013162;28;20026;-74
2022/06/20 05:00:47;;;;;;;1999.90;999.90;;;;;;;28.76;41.15;94761.03;5010927;28;20026;-73
2022/06/20 05:03:17;;;;;;;1999.90;999.90;;;;;;;28.46;40.88;94756.75;5012518;28;20030;-73
2022/06/20 05:05:46;;;;;;;1999.90;999.90;;;;;;;28.85;40.36;94777.63;5011972;28;20053;-74
2022/06/20 05:08:14;;;;;;;1999.90;999.90;;;;;;;28.41;41.52;94787.34;5012474;28;20034;-73
2022/06/20 05:10:49;;;;;;;1999.90;999.90;;;;;;;29.04;41.17;94773.25;5011808;28;20026;-73
2022/06/20 05:13:23;;;;;;;1999.90;999.90;;;;;;;28.12;43.73;94784.47;5012209;28;20577;-73
2022/06/20 05:15:50;;;;;;;1999.90;999.90;;;;;;;29.13;42.59;94775.38;5012348;28;20060;-73
2022/06/20 05:18:24;;;;;;;1999.90;999.90;;;;;;;29.50;41.40;94802.09;5010920;28;20018;-72
2022/06/20 05:20:58;;;;;;;1999.90;999.90;;;;;;;29.66;41.04;94804.03;5011774;28;20037;-72
2022/06/20 05:23:38;;;;;;;1999.90;999.90;;;;;;;29.56;41.41;94813.31;5012239;28;20026;-73
2022/06/20 05:26:06;;;;;;;1999.90;999.90;;;;;;;29.62;41.19;94806.09;5012070;28;20049;-72
2022/06/20 05:28:33;;;;;;;1999.90;999.90;;;;;;;29.12;40.90;94795.72;5011896;28;20049;-73
2022/06/20 05:31:00;;;;;;;1999.90;999.90;;;;;;;29.24;39.99;94801.25;5011626;28;20084;-72
2022/06/20 05:33:37;;;;;;;1999.90;999.90;;;;;;;29.16;39.21;94823.78;5011752;28;20101;-73
2022/06/20 05:36:12;;;;;;;1999.90;999.90;;;;;;;28.37;41.36;94806.56;5011910;28;20034;-72
2022/06/20 05:38:46;;;;;;;1999.90;999.90;;;;;;;27.22;43.19;94807.41;5011542;28;20029;-73
2022/06/20 05:41:14;;;;;;;1999.90;999.90;;;;;;;27.82;41.90;94827.31;5011721;28;20084;-73
2022/06/20 05:43:40;;;;;;;1999.90;999.90;;;;;;;27.54;42.13;94816.91;5012326;28;20034;-73
2022/06/20 05:46:12;;;;;;;1999.90;999.90;;;;;;;27.82;41.13;94834.72;5012105;28;20033;-73
2022/06/20 05:48:48;;;;;;;1999.90;999.90;;;;;;;27.68;41.30;94841.22;5011922;28;20474;-73
2022/06/20 05:51:16;;;;;;;1999.90;999.90;;;;;;;27.88;40.89;94839.28;5010266;28;20032;-72
2022/06/20 05:54:01;;;;;;;1999.90;999.90;;;;;;;28.30;39.51;94849.69;5011545;28;20488;-73
2022/06/20 05:56:35;;;;;;;1999.90;999.90;;;;;;;27.57;40.22;94819.59;5011469;28;20037;-73
2022/06/20 05:59:03;;;;;;;1999.90;999.90;;;;;;;28.03;40.07;94847.19;5011446;28;20026;-73
2022/06/20 06:01:33;;;;;;;1999.90;999.90;;;;;;;27.95;40.54;94868.44;5009725;28;20208;-74
2022/06/20 06:04:30;;;;;;;1999.90;999.90;;;;;;;27.44;41.44;94870.59;5010061;28;20084;-74
2022/06/20 06:07:21;;;;;;;1999.90;999.90;;;;;;;27.98;40.21;94876.53;5010772;28;20434;-73
2022/06/20 06:09:58;;;;;;;1999.90;999.90;;;;;;;28.43;39.93;94884.19;5002816;28;20718;-74
2022/06/20 06:12:28;;;;;;;1999.90;999.90;;;;;;;28.94;37.88;94879.09;5011113;28;20036;-73
2022/06/20 06:15:02;;;;;;;1999.90;999.90;;;;;;;28.52;38.45;94874.66;5011430;28;20026;-74
2022/06/20 06:17:37;;;;;;;1999.90;999.90;;;;;;;28.60;38.45;94886.94;5010549;28;20029;-75
2022/06/20 06:20:11;;;;;;;1999.90;999.90;;;;;;;28.81;37.27;94875.47;5009441;28;20133;-73
2022/06/20 06:22:41;;;;;;;1999.90;999.90;;;;;;;28.66;38.45;94868.81;5011006;28;20030;-74
2022/06/20 06:25:16;;;;;;;1999.90;999.90;;;;;;;28.67;38.19;94892.28;5009587;28;20028;-73
2022/06/20 06:27:45;;;;;;;1999.90;999.90;;;;;;;28.13;39.52;94900.84;5010855;28;20189;-73
2022/06/20 06:30:22;;;;;;;1999.90;999.90;;;;;;;28.18;40.43;94905.81;5009136;28;20038;-74
2022/06/20 06:33:04;;;;;;;1999.90;999.90;;;;;;;27.69;41.08;94908.34;5010820;28;20467;-73
2022/06/20 06:35:31;;;;;;;;;;;;;;;28.47;40.71;94927.91;5011192;28;20032;-71
2022/06/20 06:38:04;;;;;;;1999.90;999.90;;;;;;;28.15;40.40;94885.59;5010634;28;19917;-74
2022/06/20 06:40:48;;;;;;;1999.90;999.90;;;;;;;28.75;40.49;94919.03;5010105;28;20037;-74
2022/06/20 06:43:26;;;;;;;1999.90;999.90;;;;;;;28.56;40.08;94914.41;5009624;28;20029;-74
2022/06/20 06:45:54;;;;;;;1999.90;999.90;;;;;;;28.12;40.09;94888.38;5010699;28;20022;-75
2022/06/20 06:48:55;;;;;;;1999.90;999.90;;;;;;;29.79;37.71;94938.41;5010643;28;20710;-74
2022/06/20 06:51:37;;;;;;;1999.90;999.90;;;;;;;28.88;38.65;94941.03;5008855;28;20025;-74
2022/06/20 06:54:18;;;;;;;1999.90;999.90;;;;;;;29.46;37.70;94932.97;5009035;28;20132;-74
2022/06/20 06:56:53;;;;;;;1999.90;999.90;;;;;;;29.24;37.54;94930.00;5010306;28;20055;-74
2022/06/20 06:59:27;;;;;;;1999.90;999.90;;;;;;;28.88;37.74;94937.53;5010425;28;20026;-73
2022/06/20 07:01:57;;;;;;;1999.90;999.90;;;;;;;28.61;38.92;94951.41;5010512;28;20443;-73
2022/06/20 07:04:32;;;;;;;1999.90;999.90;;;;;;;29.16;37.09;94925.91;5009341;28;20034;-74
2022/06/20 07:07:17;;;;;;;1999.90;999.90;;;;;;;28.98;36.75;94920.88;5010383;28;20536;-74
2022/06/20 07:09:49;;;;;;;1999.90;999.90;;;;;;;28.28;37.59;94943.13;5010296;28;20504;-73
2022/06/20 07:12:27;;;;;;;1999.90;999.90;;;;;;;28.11;38.44;94957.94;5009699;28;20510;-72
2022/06/20 07:15:08;;;;;;;1999.90;999.90;;;;;;;28.61;37.96;94944.00;5009122;28;20033;-72
2022/06/20 07:18:00;;;;;;;1999.90;999.90;;;;;;;29.15;37.62;94962.69;5010371;28;20025;-73
2022/06/20 07:20:31;;;;;;;1999.90;999.90;;;;;;;28.02;38.38;94950.28;5008119;28;20525;-73
2022/06/20 07:23:00;;;;;;;1999.90;999.90;;;;;;;28.22;37.92;94934.66;5008740;28;20106;-73
2022/06/20 07:25:34;;;;;;;1999.90;999.90;;;;;;;29.07;37.00;94941.38;5008487;28;20168;-73
2022/06/20 07:28:19;;;;;;;1999.90;999.90;;;;;;;28.29;37.05;94905.59;5009807;28;20111;-73
2022/06/20 07:30:52;;;;;;;1999.90;999.90;;;;;;;29.66;35.59;94937.56;5009414;28;20030;-73
2022/06/20 07:33:26;;;;;;;1999.90;999.90;;;;;;;29.22;36.35;94942.56;5010122;28;20482;-72
2022/06/20 07:35:55;;;;;;;1999.90;999.90;;;;;;;29.04;34.50;94882.00;5010064;28;20430;-73
2022/06/20 07:38:25;;;;;;;1999.90;999.90;;;;;;;29.10;35.22;94946.03;5009834;28;20073;-72
2022/06/20 07:41:01;;;;;;;1999.90;999.90;;;;;;;29.54;34.86;94969.22;5008662;28;20030;-73
2022/06/20 07:43:55;;;;;;;1999.90;999.90;;;;;;;29.74;35.18;94958.13;5009630;28;20109;-72
2022/06/20 07:46:26;;;;;;;1999.90;999.90;;;;;;;30.97;33.18;94940.47;5003900;28;20390;-72
2022/06/20 07:48:57;;;;;;;1999.90;999.90;;;;;;;31.19;31.48;94891.84;5009886;28;20045;-74
2022/06/20 07:51:30;;;;;;;1999.90;999.90;;;;;;;29.92;33.68;94938.44;5008002;28;20489;-72
2022/06/20 07:54:23;;;;;;;1999.90;999.90;;;;;;;30.00;33.58;94874.72;5008319;28;20041;-73
2022/06/20 07:56:59;;;;;;;1999.90;999.90;;;;;;;31.10;32.84;94968.69;5003024;28;20042;-73
2022/06/20 07:59:34;;;;;;;1999.90;999.90;;;;;;;30.24;33.13;94938.31;5009540;28;20026;-73
2022/06/20 08:02:19;;;;;;;1999.90;999.90;;;;;;;31.78;31.58;94966.44;5009223;28;20061;-72
2022/06/20 08:04:47;;;;;;;1999.90;999.90;;;;;;;31.21;30.71;94905.91;5009400;28;20044;-73
2022/06/20 08:07:20;;;;;;;1999.90;999.90;;;;;;;29.98;33.44;94928.47;5009637;28;20065;-73
2022/06/20 08:09:58;;;;;;;1999.90;999.90;;;;;;;31.80;30.75;94981.31;5008050;28;20478;-73
2022/06/20 08:12:46;;;;;;;1999.90;999.90;;;;;;;31.21;31.54;94985.59;5009773;28;20026;-73
2022/06/20 08:15:20;;;;;;;1999.90;999.90;;;;;;;31.11;30.13;94889.78;4998839;28;20034;-74
2022/06/20 08:17:45;;;;;;;1999.90;999.90;;;;;;;31.36;31.00;94968.66;5008176;28;20030;-75
2022/06/20 08:20:12;;;;;;;1999.90;999.90;;;;;;;30.09;31.68;94963.81;5008949;28;20033;-74
2022/06/20 08:22:50;;;;;;;1999.90;999.90;;;;;;;30.33;31.75;94994.53;5008011;28;20088;-72
2022/06/20 08:25:20;;;;;;;1999.90;999.90;;;;;;;29.81;32.46;95026.47;5009437;28;20030;-72
2022/06/20 08:27:56;;;;;;;1999.90;999.90;;;;;;;29.55;32.73;94986.44;5008121;28;20037;-72
2022/06/20 08:30:40;;;;;;;1999.90;999.90;;;;;;;31.18;30.91;95010.44;5009143;28;20429;-72
2022/06/20 08:33:18;;;;;;;1999.90;999.90;;;;;;;29.67;31.22;94928.16;5009417;28;20078;-74
2022/06/20 08:36:19;;;;;;;1999.90;999.90;;;;;;;30.07;31.36;95007.38;5009457;28;20113;-73
2022/06/20 08:39:18;;;;;;;1999.90;999.90;;;;;;;30.11;31.31;94977.88;5004635;28;20034;-74
2022/06/20 08:42:33;;;;;;;1999.90;999.90;;;;;;;30.05;31.37;95024.28;5012622;28;20426;-74
2022/06/20 08:44:58;;;;;;;1999.90;999.90;;;;;;;30.37;31.04;95023.41;5012687;28;20385;-73
2022/06/20 08:48:01;;;;;;;1999.90;999.90;;;;;;;31.10;30.20;95020.13;5012803;28;20037;-72
2022/06/20 08:50:48;;;;;;;1999.90;999.90;;;;;;;32.20;28.46;95011.00;5012149;28;20319;-75
2022/06/20 08:53:51;;;;;;;1999.90;999.90;;;;;;;31.04;30.17;95017.91;5011320;28;20494;-73
2022/06/20 08:56:29;;;;;;;1999.90;999.90;;;;;;;29.95;31.91;95022.59;5011130;28;20024;-74
2022/06/20 08:59:08;;;;;;;1999.90;999.90;;;;;;;29.70;30.40;94916.31;5011474;28;20029;-74
2022/06/20 09:01:51;;;;;;;1999.90;999.90;;;;;;;31.02;29.29;95005.84;5012421;28;20025;-73
2022/06/20 09:04:47;;;;;;;1999.90;999.90;;;;;;;31.53;29.07;95023.06;5012563;28;20049;-74
2022/06/20 09:07:12;;;;;;;1999.90;999.90;;;;;;;30.14;30.87;95026.41;5010951;28;20042;-73
2022/06/20 09:09:50;;;;;;;1999.90;999.90;;;;;;;30.20;30.89;95027.41;5011565;28;20084;-72
2022/06/20 09:12:34;;;;;;;1999.90;999.90;;;;;;;30.45;30.85;95024.72;5012139;28;20035;-73
2022/06/20 09:15:02;;;;;;;1999.90;999.90;;;;;;;29.87;31.44;95027.47;5012188;28;20033;-74
2022/06/20 09:18:01;;;;;;;1999.90;999.90;;;;;;;29.71;31.58;95014.56;5010758;28;20363;-73
2022/06/20 09:20:35;;;;;;;1999.90;999.90;;;;;;;29.69;31.13;94950.44;5011641;28;20482;-72
2022/06/20 09:23:13;;;;;;;1999.90;999.90;;;;;;;29.01;31.92;94881.66;5012305;28;20394;-73
2022/06/20 09:25:47;;;;;;;1999.90;999.90;;;;;;;31.53;29.81;95012.06;5012192;28;20075;-73
2022/06/20 09:28:59;;;;;;;1999.90;999.90;;;;;;;30.08;30.74;94984.22;5012125;28;20389;-72
2022/06/20 09:31:41;;;;;;;1999.90;999.90;;;;;;;30.18;30.58;94999.66;4970153;28;20035;-73
2022/06/20 09:34:21;;;;;;;1999.90;999.90;;;;;;;31.45;29.30;95008.00;5007969;28;20073;-72
2022/06/20 09:37:05;;;;;;;1999.90;999.90;;;;;;;32.03;28.83;95012.38;5010608;28;20026;-72
2022/06/20 09:39:55;;;;;;;1999.90;999.90;;;;;;;31.61;29.40;95015.34;5011689;28;20308;-72
2022/06/20 09:42:30;;;;;;;1999.90;999.90;;;;;;;31.34;29.78;95004.84;5010393;28;20060;-72
2022/06/20 09:45:07;;;;;;;1999.90;999.90;;;;;;;31.29;29.41;95008.91;5010745;28;20029;-72
2022/06/20 09:47:42;;;;;;;1999.90;999.90;;;;;;;30.62;30.55;95016.44;5011571;28;20618;-72
2022/06/20 09:50:22;;;;;;;1999.90;999.90;;;;;;;31.14;29.95;95023.53;5010898;28;20049;-73
2022/06/20 09:53:12;;;;;;;1999.90;999.90;;;;;;;32.26;27.89;95011.19;5011444;28;20109;-73
2022/06/20 09:55:52;;;;;;;1999.90;999.90;;;;;;;31.62;28.01;95013.34;5011262;28;20030;-73
2022/06/20 09:58:43;;;;;;;1999.90;999.90;;;;;;;31.20;28.83;95021.75;5011424;28;20080;-72
2022/06/20 10:01:25;;;;;;;1999.90;999.90;;;;;;;31.67;27.66;95015.53;5010064;28;20281;-73
2022/06/20 10:04:09;;;;;;;1999.90;999.90;;;;;;;30.76;29.13;94983.06;5011430;28;20034;-74
2022/06/20 10:06:55;;;;;;;1999.90;999.90;;;;;;;31.69;27.65;94980.13;5011361;28;20026;-73
2022/06/20 10:09:33;;;;;;;1999.90;999.90;;;;;;;30.79;28.92;95017.91;5009816;28;20041;-74
2022/06/20 10:12:28;;;;;;;1999.90;999.90;;;;;;;31.83;27.83;95007.16;5010613;28;20065;-73
2022/06/20 10:15:04;;;;;;;1999.90;999.90;;;;;;;31.40;27.87;94915.13;5011397;28;20379;-73
2022/06/20 10:17:39;;;;;;;1999.90;999.90;;;;;;;30.98;28.89;95027.16;5010973;28;20021;-73
2022/06/20 10:20:29;;;;;;;1999.90;999.90;;;;;;;31.11;28.16;94870.53;4993120;28;20026;-73
2022/06/20 10:23:09;;;;;;;1999.90;999.90;;;;;;;31.31;27.20;94928.78;5011063;28;20034;-73
2022/06/20 10:25:53;;;;;;;1999.90;999.90;;;;;;;32.32;27.63;95009.38;5010866;28;20048;-73
2022/06/20 10:28:44;;;;;;;1999.90;999.90;;;;;;;29.96;28.79;94835.66;5009359;28;20088;-73
2022/06/20 10:31:25;;;;;;;1999.90;999.90;;;;;;;32.18;27.66;95010.66;5010370;28;20033;-73
2022/06/20 10:33:56;;;;;;;1999.90;999.90;;;;;;;32.29;27.30;95007.50;5010855;28;20025;-73
2022/06/20 10:36:42;;;;;;;1999.90;999.90;;;;;;;31.23;28.50;95018.13;5009415;28;20526;-73
2022/06/20 10:39:19;;;;;;;1999.90;999.90;;;;;;;31.65;28.47;95007.75;5009439;28;20117;-73
2022/06/20 10:42:02;;;;;;;1999.90;999.90;;;;;;;31.63;27.00;94935.16;5008994;28;20026;-73
2022/06/20 10:44:57;;;;;;;1999.90;999.90;;;;;;;29.58;28.78;94793.69;5009097;28;20032;-73
2022/06/20 10:47:45;;;;;;;1999.90;999.90;;;;;;;31.44;28.23;94912.25;5010673;28;20383;-73
2022/06/20 10:50:35;;;;;;;1999.90;999.90;;;;;;;31.77;27.77;95008.91;5010027;28;20957;-73
2022/06/20 10:53:33;;;;;;;1999.90;999.90;;;;;;;30.89;28.29;94926.19;5009401;28;20382;-73
2022/06/20 10:56:24;;;;;;;1999.90;999.90;;;;;;;31.45;28.63;94999.75;5009007;28;20373;-73
2022/06/20 10:59:05;;;;;;;1999.90;999.90;;;;;;;30.66;28.98;95000.59;4991062;28;20065;-73
2022/06/20 11:01:46;;;;;;;1999.90;999.90;;;;;;;29.98;27.88;94797.59;5009782;28;20026;-73
2022/06/20 11:04:23;;;;;;;1999.90;999.90;;;;;;;30.48;29.05;95004.66;5010407;28;20037;-72
2022/06/20 11:07:04;;;;;;;1999.90;999.90;;;;;;;30.84;28.00;94997.38;5008964;28;20034;-73
2022/06/20 11:09:44;;;;;;;1999.90;999.90;;;;;;;30.68;28.17;94996.22;5008912;28;20029;-72
2022/06/20 11:12:23;;;;;;;1999.90;999.90;;;;;;;30.29;28.29;94935.03;5008475;28;20052;-72
2022/06/20 11:15:12;;;;;;;1999.90;999.90;;;;;;;30.78;28.62;94948.50;5010035;28;20026;-73
2022/06/20 11:17:37;;;;;;;1999.90;999.90;;;;;;;30.80;28.49;94984.50;5010507;28;20022;-72
2022/06/20 11:20:30;;;;;;;1999.90;999.90;;;;;;;31.40;27.46;94975.59;5009480;28;20041;-72
2022/06/20 11:23:11;;;;;;;1999.90;999.90;;;;;;;30.46;28.57;94948.69;5010114;28;20033;-73
2022/06/20 11:26:09;;;;;;;1999.90;999.90;;;;;;;30.95;28.39;94971.09;5010013;28;20026;-72
2022/06/20 11:28:59;;;;;;;1999.90;999.90;;;;;;;30.23;29.16;94983.41;5009825;28;20069;-73
2022/06/20 11:31:37;;;;;;;1999.90;999.90;;;;;;;30.46;28.98;94989.84;5008307;28;20054;-72
2022/06/20 11:34:19;;;;;;;1999.90;999.90;;;;;;;30.03;29.31;94978.06;5009946;28;20030;-72
2022/06/20 11:37:18;;;;;;;1999.90;999.90;;;;;;;30.00;28.78;94964.47;5010091;28;20029;-72